sensor_id;sensor_type;location;lat;lon;timestamp;P1;durP1;ratioP1;P2;durP2;ratioP2
4268;SDS011;2148;48.554;7.834;2023-11-18T00:01:07;6.03;;;5.43;;
4268;SDS011;2148;48.554;7.834;2023-11-18T00:03:33;6.30;;;5.70;;
4268;SDS011;2148;48.554;7.834;2023-11-18T00:05:59;6.50;;;5.90;;
4268;SDS011;2148;48.554;7.834;2023-11-18T00:08:24;6.00;;;5.50;;
4268;SDS011;2148;48.554;7.834;2023-11-18T00:10:50;6.57;;;5.97;;
4268;SDS011;2148;48.554;7.834;2023-11-18T00:13:15;6.73;;;5.40;;
4268;SDS011;2148;48.554;7.834;2023-11-18T00:15:40;6.33;;;5.70;;
4268;SDS011;2148;48.554;7.834;2023-11-18T00:18:07;8.07;;;6.37;;
4268;SDS011;2148;48.554;7.834;2023-11-18T00:20:32;5.80;;;5.30;;
4268;SDS011;2148;48.554;7.834;2023-11-18T00:22:57;7.10;;;5.90;;
4268;SDS011;2148;48.554;7.834;2023-11-18T00:25:23;6.03;;;5.53;;
4268;SDS011;2148;48.554;7.834;2023-11-18T00:27:49;6.63;;;6.07;;
4268;SDS011;2148;48.554;7.834;2023-11-18T00:30:14;7.27;;;6.57;;
4268;SDS011;2148;48.554;7.834;2023-11-18T00:32:40;7.03;;;6.43;;
4268;SDS011;2148;48.554;7.834;2023-11-18T00:35:05;7.33;;;5.60;;
4268;SDS011;2148;48.554;7.834;2023-11-18T00:37:32;6.70;;;6.10;;
4268;SDS011;2148;48.554;7.834;2023-11-18T00:39:58;6.50;;;5.90;;
4268;SDS011;2148;48.554;7.834;2023-11-18T00:42:23;6.60;;;6.00;;
4268;SDS011;2148;48.554;7.834;2023-11-18T00:44:48;7.27;;;6.57;;
4268;SDS011;2148;48.554;7.834;2023-11-18T00:47:14;7.40;;;6.50;;
4268;SDS011;2148;48.554;7.834;2023-11-18T00:49:39;7.90;;;6.83;;
4268;SDS011;2148;48.554;7.834;2023-11-18T00:52:05;7.57;;;6.87;;
4268;SDS011;2148;48.554;7.834;2023-11-18T00:54:30;8.80;;;6.90;;
4268;SDS011;2148;48.554;7.834;2023-11-18T00:56:55;6.93;;;6.23;;
4268;SDS011;2148;48.554;7.834;2023-11-18T00:59:20;7.50;;;6.70;;
4268;SDS011;2148;48.554;7.834;2023-11-18T01:01:46;6.80;;;6.20;;
4268;SDS011;2148;48.554;7.834;2023-11-18T01:04:11;7.47;;;6.27;;
4268;SDS011;2148;48.554;7.834;2023-11-18T01:06:36;7.17;;;6.57;;
4268;SDS011;2148;48.554;7.834;2023-11-18T01:09:02;8.37;;;6.43;;
4268;SDS011;2148;48.554;7.834;2023-11-18T01:11:27;7.07;;;6.37;;
4268;SDS011;2148;48.554;7.834;2023-11-18T01:13:52;8.67;;;6.83;;
4268;SDS011;2148;48.554;7.834;2023-11-18T01:16:19;7.27;;;6.30;;
4268;SDS011;2148;48.554;7.834;2023-11-18T01:18:44;7.90;;;6.80;;
4268;SDS011;2148;48.554;7.834;2023-11-18T01:21:10;8.60;;;7.67;;
4268;SDS011;2148;48.554;7.834;2023-11-18T01:23:36;8.67;;;7.07;;
4268;SDS011;2148;48.554;7.834;2023-11-18T01:26:02;7.77;;;6.97;;
4268;SDS011;2148;48.554;7.834;2023-11-18T01:28:30;8.97;;;7.07;;
4268;SDS011;2148;48.554;7.834;2023-11-18T01:31:02;7.37;;;6.67;;
4268;SDS011;2148;48.554;7.834;2023-11-18T01:33:28;9.17;;;7.33;;
4268;SDS011;2148;48.554;7.834;2023-11-18T01:35:54;7.83;;;7.10;;
4268;SDS011;2148;48.554;7.834;2023-11-18T01:38:20;8.43;;;7.30;;
4268;SDS011;2148;48.554;7.834;2023-11-18T01:40:45;9.23;;;7.77;;
4268;SDS011;2148;48.554;7.834;2023-11-18T01:43:11;7.67;;;6.87;;
4268;SDS011;2148;48.554;7.834;2023-11-18T01:45:38;8.67;;;7.33;;
4268;SDS011;2148;48.554;7.834;2023-11-18T01:48:05;8.63;;;7.70;;
4268;SDS011;2148;48.554;7.834;2023-11-18T01:50:31;9.13;;;8.27;;
4268;SDS011;2148;48.554;7.834;2023-11-18T01:52:57;9.03;;;7.53;;
4268;SDS011;2148;48.554;7.834;2023-11-18T01:55:22;8.83;;;7.93;;
4268;SDS011;2148;48.554;7.834;2023-11-18T01:57:47;9.63;;;7.50;;
4268;SDS011;2148;48.554;7.834;2023-11-18T02:00:14;10.10;;;7.50;;
4268;SDS011;2148;48.554;7.834;2023-11-18T02:02:42;8.57;;;7.60;;
4268;SDS011;2148;48.554;7.834;2023-11-18T02:05:08;8.20;;;7.40;;
4268;SDS011;2148;48.554;7.834;2023-11-18T02:07:33;8.67;;;7.10;;
4268;SDS011;2148;48.554;7.834;2023-11-18T02:10:01;9.57;;;7.63;;
4268;SDS011;2148;48.554;7.834;2023-11-18T02:12:31;8.40;;;7.57;;
4268;SDS011;2148;48.554;7.834;2023-11-18T02:15:18;7.37;;;6.67;;
4268;SDS011;2148;48.554;7.834;2023-11-18T02:17:43;7.90;;;7.17;;
4268;SDS011;2148;48.554;7.834;2023-11-18T02:20:10;8.40;;;7.33;;
4268;SDS011;2148;48.554;7.834;2023-11-18T02:22:41;8.60;;;7.67;;
4268;SDS011;2148;48.554;7.834;2023-11-18T02:25:08;7.67;;;6.87;;
4268;SDS011;2148;48.554;7.834;2023-11-18T02:34:19;8.30;;;7.50;;
4268;SDS011;2148;48.554;7.834;2023-11-18T02:36:48;8.00;;;7.30;;
4268;SDS011;2148;48.554;7.834;2023-11-18T02:39:21;7.60;;;6.80;;
4268;SDS011;2148;48.554;7.834;2023-11-18T02:41:48;7.60;;;6.90;;
4268;SDS011;2148;48.554;7.834;2023-11-18T02:44:16;7.30;;;6.67;;
4268;SDS011;2148;48.554;7.834;2023-11-18T02:46:43;7.70;;;6.97;;
4268;SDS011;2148;48.554;7.834;2023-11-18T02:49:08;6.83;;;6.23;;
4268;SDS011;2148;48.554;7.834;2023-11-18T02:51:34;7.73;;;6.43;;
4268;SDS011;2148;48.554;7.834;2023-11-18T02:54:04;6.70;;;6.00;;
4268;SDS011;2148;48.554;7.834;2023-11-18T02:56:35;9.20;;;7.67;;
4268;SDS011;2148;48.554;7.834;2023-11-18T02:59:00;7.57;;;6.83;;
4268;SDS011;2148;48.554;7.834;2023-11-18T03:01:26;7.50;;;6.63;;
4268;SDS011;2148;48.554;7.834;2023-11-18T03:03:52;7.03;;;6.33;;
4268;SDS011;2148;48.554;7.834;2023-11-18T03:06:18;6.93;;;6.23;;
4268;SDS011;2148;48.554;7.834;2023-11-18T03:08:43;7.33;;;6.60;;
4268;SDS011;2148;48.554;7.834;2023-11-18T03:11:09;6.97;;;5.97;;
4268;SDS011;2148;48.554;7.834;2023-11-18T03:13:34;7.37;;;6.53;;
4268;SDS011;2148;48.554;7.834;2023-11-18T03:16:00;7.20;;;6.43;;
4268;SDS011;2148;48.554;7.834;2023-11-18T03:18:25;7.20;;;6.50;;
4268;SDS011;2148;48.554;7.834;2023-11-18T03:20:51;6.63;;;6.00;;
4268;SDS011;2148;48.554;7.834;2023-11-18T03:23:17;6.90;;;6.30;;
4268;SDS011;2148;48.554;7.834;2023-11-18T03:25:42;6.70;;;6.13;;
4268;SDS011;2148;48.554;7.834;2023-11-18T03:28:08;5.97;;;5.47;;
4268;SDS011;2148;48.554;7.834;2023-11-18T03:30:33;6.57;;;5.90;;
4268;SDS011;2148;48.554;7.834;2023-11-18T03:33:02;6.23;;;5.63;;
4268;SDS011;2148;48.554;7.834;2023-11-18T03:35:28;6.13;;;5.53;;
4268;SDS011;2148;48.554;7.834;2023-11-18T03:37:54;5.87;;;5.37;;
4268;SDS011;2148;48.554;7.834;2023-11-18T03:40:20;7.40;;;5.07;;
4268;SDS011;2148;48.554;7.834;2023-11-18T03:42:45;4.97;;;4.57;;
4268;SDS011;2148;48.554;7.834;2023-11-18T03:45:11;5.50;;;5.00;;
4268;SDS011;2148;48.554;7.834;2023-11-18T03:47:36;5.93;;;4.97;;
4268;SDS011;2148;48.554;7.834;2023-11-18T03:50:02;5.20;;;4.70;;
4268;SDS011;2148;48.554;7.834;2023-11-18T03:52:27;5.77;;;5.03;;
4268;SDS011;2148;48.554;7.834;2023-11-18T03:54:54;4.90;;;4.50;;
4268;SDS011;2148;48.554;7.834;2023-11-18T03:57:22;4.87;;;4.43;;
4268;SDS011;2148;48.554;7.834;2023-11-18T03:59:48;6.27;;;4.63;;
4268;SDS011;2148;48.554;7.834;2023-11-18T04:02:13;5.40;;;4.50;;
4268;SDS011;2148;48.554;7.834;2023-11-18T04:04:38;5.50;;;4.60;;
4268;SDS011;2148;48.554;7.834;2023-11-18T04:07:03;5.17;;;4.47;;
4268;SDS011;2148;48.554;7.834;2023-11-18T04:09:29;4.70;;;4.30;;
4268;SDS011;2148;48.554;7.834;2023-11-18T04:11:55;6.23;;;4.40;;
4268;SDS011;2148;48.554;7.834;2023-11-18T04:14:20;5.33;;;4.57;;
4268;SDS011;2148;48.554;7.834;2023-11-18T04:16:46;5.10;;;4.70;;
4268;SDS011;2148;48.554;7.834;2023-11-18T04:19:11;5.27;;;4.60;;
4268;SDS011;2148;48.554;7.834;2023-11-18T04:21:37;5.80;;;4.43;;
4268;SDS011;2148;48.554;7.834;2023-11-18T04:24:03;5.07;;;4.57;;
4268;SDS011;2148;48.554;7.834;2023-11-18T04:26:30;5.70;;;5.20;;
4268;SDS011;2148;48.554;7.834;2023-11-18T04:28:55;5.90;;;4.77;;
4268;SDS011;2148;48.554;7.834;2023-11-18T04:31:21;5.60;;;5.00;;
4268;SDS011;2148;48.554;7.834;2023-11-18T04:33:46;4.87;;;4.47;;
4268;SDS011;2148;48.554;7.834;2023-11-18T04:36:11;5.07;;;4.57;;
4268;SDS011;2148;48.554;7.834;2023-11-18T04:38:38;5.20;;;4.70;;
4268;SDS011;2148;48.554;7.834;2023-11-18T04:41:03;5.10;;;4.60;;
4268;SDS011;2148;48.554;7.834;2023-11-18T04:43:29;6.60;;;5.03;;
4268;SDS011;2148;48.554;7.834;2023-11-18T04:45:55;4.93;;;4.50;;
4268;SDS011;2148;48.554;7.834;2023-11-18T04:48:20;5.57;;;5.00;;
4268;SDS011;2148;48.554;7.834;2023-11-18T04:50:46;4.90;;;4.40;;
4268;SDS011;2148;48.554;7.834;2023-11-18T04:53:11;6.43;;;5.37;;
4268;SDS011;2148;48.554;7.834;2023-11-18T04:55:37;5.40;;;4.63;;
4268;SDS011;2148;48.554;7.834;2023-11-18T04:58:03;5.20;;;4.70;;
4268;SDS011;2148;48.554;7.834;2023-11-18T05:00:30;5.10;;;4.70;;
4268;SDS011;2148;48.554;7.834;2023-11-18T05:02:56;5.30;;;4.90;;
4268;SDS011;2148;48.554;7.834;2023-11-18T05:05:22;5.30;;;4.90;;
4268;SDS011;2148;48.554;7.834;2023-11-18T05:07:48;5.40;;;4.90;;
4268;SDS011;2148;48.554;7.834;2023-11-18T05:10:13;5.73;;;4.80;;
4268;SDS011;2148;48.554;7.834;2023-11-18T05:12:38;5.10;;;4.70;;
4268;SDS011;2148;48.554;7.834;2023-11-18T05:15:05;5.30;;;4.80;;
4268;SDS011;2148;48.554;7.834;2023-11-18T05:17:32;6.10;;;5.47;;
4268;SDS011;2148;48.554;7.834;2023-11-18T05:20:02;5.57;;;4.93;;
4268;SDS011;2148;48.554;7.834;2023-11-18T05:22:28;5.00;;;4.50;;
4268;SDS011;2148;48.554;7.834;2023-11-18T05:24:53;5.40;;;4.63;;
4268;SDS011;2148;48.554;7.834;2023-11-18T05:27:19;4.73;;;4.33;;
4268;SDS011;2148;48.554;7.834;2023-11-18T05:29:44;5.13;;;4.73;;
4268;SDS011;2148;48.554;7.834;2023-11-18T05:32:19;5.07;;;4.67;;
4268;SDS011;2148;48.554;7.834;2023-11-18T05:34:45;6.20;;;5.07;;
4268;SDS011;2148;48.554;7.834;2023-11-18T05:37:11;6.33;;;5.63;;
4268;SDS011;2148;48.554;7.834;2023-11-18T05:39:36;6.13;;;5.53;;
4268;SDS011;2148;48.554;7.834;2023-11-18T05:42:07;6.10;;;5.40;;
4268;SDS011;2148;48.554;7.834;2023-11-18T05:44:35;6.13;;;5.63;;
4268;SDS011;2148;48.554;7.834;2023-11-18T05:47:02;6.57;;;5.57;;
4268;SDS011;2148;48.554;7.834;2023-11-18T05:49:28;5.73;;;5.10;;
4268;SDS011;2148;48.554;7.834;2023-11-18T05:51:53;7.37;;;4.87;;
4268;SDS011;2148;48.554;7.834;2023-11-18T05:54:19;5.87;;;5.30;;
4268;SDS011;2148;48.554;7.834;2023-11-18T05:56:44;5.53;;;4.90;;
4268;SDS011;2148;48.554;7.834;2023-11-18T05:59:09;6.50;;;5.07;;
4268;SDS011;2148;48.554;7.834;2023-11-18T06:01:36;5.43;;;4.63;;
4268;SDS011;2148;48.554;7.834;2023-11-18T06:04:02;5.70;;;5.13;;
4268;SDS011;2148;48.554;7.834;2023-11-18T06:06:28;6.50;;;5.90;;
4268;SDS011;2148;48.554;7.834;2023-11-18T06:08:53;6.40;;;5.77;;
4268;SDS011;2148;48.554;7.834;2023-11-18T06:11:19;5.90;;;5.40;;
4268;SDS011;2148;48.554;7.834;2023-11-18T06:13:45;6.40;;;5.80;;
4268;SDS011;2148;48.554;7.834;2023-11-18T06:16:15;5.90;;;5.30;;
4268;SDS011;2148;48.554;7.834;2023-11-18T06:18:44;5.50;;;5.10;;
4268;SDS011;2148;48.554;7.834;2023-11-18T06:21:15;5.70;;;5.30;;
4268;SDS011;2148;48.554;7.834;2023-11-18T06:23:43;6.60;;;6.00;;
4268;SDS011;2148;48.554;7.834;2023-11-18T06:26:13;7.07;;;5.63;;
4268;SDS011;2148;48.554;7.834;2023-11-18T06:28:40;6.00;;;5.50;;
4268;SDS011;2148;48.554;7.834;2023-11-18T06:31:06;6.07;;;5.47;;
4268;SDS011;2148;48.554;7.834;2023-11-18T06:33:36;5.67;;;5.17;;
4268;SDS011;2148;48.554;7.834;2023-11-18T06:36:02;6.37;;;5.77;;
4268;SDS011;2148;48.554;7.834;2023-11-18T06:38:29;6.70;;;5.87;;
4268;SDS011;2148;48.554;7.834;2023-11-18T06:40:55;6.10;;;5.60;;
4268;SDS011;2148;48.554;7.834;2023-11-18T06:43:21;6.47;;;5.67;;
4268;SDS011;2148;48.554;7.834;2023-11-18T06:45:46;8.23;;;6.40;;
4268;SDS011;2148;48.554;7.834;2023-11-18T06:48:13;6.87;;;5.60;;
4268;SDS011;2148;48.554;7.834;2023-11-18T06:50:39;5.97;;;5.50;;
4268;SDS011;2148;48.554;7.834;2023-11-18T06:53:09;6.50;;;5.87;;
4268;SDS011;2148;48.554;7.834;2023-11-18T06:55:35;5.90;;;5.27;;
4268;SDS011;2148;48.554;7.834;2023-11-18T06:58:01;6.30;;;5.70;;
4268;SDS011;2148;48.554;7.834;2023-11-18T07:00:27;6.57;;;5.90;;
4268;SDS011;2148;48.554;7.834;2023-11-18T07:02:54;6.17;;;5.07;;
4268;SDS011;2148;48.554;7.834;2023-11-18T07:05:19;6.33;;;5.73;;
4268;SDS011;2148;48.554;7.834;2023-11-18T07:07:45;6.00;;;5.40;;
4268;SDS011;2148;48.554;7.834;2023-11-18T07:10:11;6.10;;;5.43;;
4268;SDS011;2148;48.554;7.834;2023-11-18T07:12:38;6.80;;;5.90;;
4268;SDS011;2148;48.554;7.834;2023-11-18T07:15:04;6.10;;;5.60;;
4268;SDS011;2148;48.554;7.834;2023-11-18T07:17:30;6.30;;;5.80;;
4268;SDS011;2148;48.554;7.834;2023-11-18T07:19:55;7.83;;;6.10;;
4268;SDS011;2148;48.554;7.834;2023-11-18T07:22:20;6.73;;;5.07;;
4268;SDS011;2148;48.554;7.834;2023-11-18T07:24:46;6.10;;;5.60;;
4268;SDS011;2148;48.554;7.834;2023-11-18T07:27:11;6.20;;;5.60;;
4268;SDS011;2148;48.554;7.834;2023-11-18T07:29:36;5.47;;;4.97;;
4268;SDS011;2148;48.554;7.834;2023-11-18T07:32:01;5.50;;;5.00;;
4268;SDS011;2148;48.554;7.834;2023-11-18T07:34:30;5.57;;;5.17;;
4268;SDS011;2148;48.554;7.834;2023-11-18T07:36:57;5.70;;;5.20;;
4268;SDS011;2148;48.554;7.834;2023-11-18T07:39:23;6.03;;;5.53;;
4268;SDS011;2148;48.554;7.834;2023-11-18T07:41:55;5.93;;;5.43;;
4268;SDS011;2148;48.554;7.834;2023-11-18T07:44:24;5.80;;;5.23;;
4268;SDS011;2148;48.554;7.834;2023-11-18T07:46:50;6.27;;;5.17;;
4268;SDS011;2148;48.554;7.834;2023-11-18T07:49:15;5.80;;;5.23;;
4268;SDS011;2148;48.554;7.834;2023-11-18T07:51:41;5.77;;;5.20;;
4268;SDS011;2148;48.554;7.834;2023-11-18T07:54:07;5.23;;;4.83;;
4268;SDS011;2148;48.554;7.834;2023-11-18T07:56:32;5.10;;;4.30;;
4268;SDS011;2148;48.554;7.834;2023-11-18T07:58:57;8.07;;;4.83;;
4268;SDS011;2148;48.554;7.834;2023-11-18T08:01:23;5.57;;;4.73;;
4268;SDS011;2148;48.554;7.834;2023-11-18T08:03:48;5.00;;;4.50;;
4268;SDS011;2148;48.554;7.834;2023-11-18T08:06:15;5.67;;;4.70;;
4268;SDS011;2148;48.554;7.834;2023-11-18T08:08:42;5.10;;;4.60;;
4268;SDS011;2148;48.554;7.834;2023-11-18T08:11:09;7.13;;;5.50;;
4268;SDS011;2148;48.554;7.834;2023-11-18T08:13:35;5.23;;;4.73;;
4268;SDS011;2148;48.554;7.834;2023-11-18T08:16:01;4.37;;;3.97;;
4268;SDS011;2148;48.554;7.834;2023-11-18T08:18:26;6.90;;;4.93;;
4268;SDS011;2148;48.554;7.834;2023-11-18T08:20:52;5.00;;;4.50;;
4268;SDS011;2148;48.554;7.834;2023-11-18T08:23:18;4.53;;;4.10;;
4268;SDS011;2148;48.554;7.834;2023-11-18T08:25:44;5.00;;;4.40;;
4268;SDS011;2148;48.554;7.834;2023-11-18T08:28:11;5.90;;;4.33;;
4268;SDS011;2148;48.554;7.834;2023-11-18T08:30:39;4.67;;;4.00;;
4268;SDS011;2148;48.554;7.834;2023-11-18T08:33:04;8.13;;;4.07;;
4268;SDS011;2148;48.554;7.834;2023-11-18T08:35:32;4.03;;;3.70;;
4268;SDS011;2148;48.554;7.834;2023-11-18T08:37:57;3.90;;;3.60;;
4268;SDS011;2148;48.554;7.834;2023-11-18T08:40:24;3.73;;;3.43;;
4268;SDS011;2148;48.554;7.834;2023-11-18T08:42:51;5.10;;;4.23;;
4268;SDS011;2148;48.554;7.834;2023-11-18T08:45:19;4.27;;;3.87;;
4268;SDS011;2148;48.554;7.834;2023-11-18T08:47:46;5.03;;;3.83;;
4268;SDS011;2148;48.554;7.834;2023-11-18T08:50:16;4.10;;;3.70;;
4268;SDS011;2148;48.554;7.834;2023-11-18T08:52:42;5.63;;;4.13;;
4268;SDS011;2148;48.554;7.834;2023-11-18T08:55:09;4.50;;;4.10;;
4268;SDS011;2148;48.554;7.834;2023-11-18T08:57:45;4.50;;;4.07;;
4268;SDS011;2148;48.554;7.834;2023-11-18T09:00:17;5.27;;;4.27;;
4268;SDS011;2148;48.554;7.834;2023-11-18T09:03:02;4.33;;;3.93;;
4268;SDS011;2148;48.554;7.834;2023-11-18T09:05:30;4.77;;;4.37;;
4268;SDS011;2148;48.554;7.834;2023-11-18T09:08:00;5.30;;;4.80;;
4268;SDS011;2148;48.554;7.834;2023-11-18T09:10:27;6.93;;;4.40;;
4268;SDS011;2148;48.554;7.834;2023-11-18T09:12:55;6.00;;;5.07;;
4268;SDS011;2148;48.554;7.834;2023-11-18T09:15:20;5.57;;;4.40;;
4268;SDS011;2148;48.554;7.834;2023-11-18T09:17:49;4.83;;;4.43;;
4268;SDS011;2148;48.554;7.834;2023-11-18T09:20:14;6.93;;;4.27;;
4268;SDS011;2148;48.554;7.834;2023-11-18T09:22:47;4.23;;;3.83;;
4268;SDS011;2148;48.554;7.834;2023-11-18T09:25:13;4.00;;;3.70;;
4268;SDS011;2148;48.554;7.834;2023-11-18T09:27:38;5.57;;;3.70;;
4268;SDS011;2148;48.554;7.834;2023-11-18T09:30:05;5.90;;;3.70;;
4268;SDS011;2148;48.554;7.834;2023-11-18T09:32:38;4.17;;;3.50;;
4268;SDS011;2148;48.554;7.834;2023-11-18T09:35:12;4.67;;;3.57;;
4268;SDS011;2148;48.554;7.834;2023-11-18T09:37:38;3.87;;;3.57;;
4268;SDS011;2148;48.554;7.834;2023-11-18T09:40:06;4.03;;;3.63;;
4268;SDS011;2148;48.554;7.834;2023-11-18T09:42:42;6.00;;;4.40;;
4268;SDS011;2148;48.554;7.834;2023-11-18T09:45:09;4.10;;;3.80;;
4268;SDS011;2148;48.554;7.834;2023-11-18T09:47:45;6.10;;;4.07;;
4268;SDS011;2148;48.554;7.834;2023-11-18T09:50:12;6.63;;;4.20;;
4268;SDS011;2148;48.554;7.834;2023-11-18T09:52:42;4.83;;;4.20;;
4268;SDS011;2148;48.554;7.834;2023-11-18T09:55:21;4.90;;;3.90;;
4268;SDS011;2148;48.554;7.834;2023-11-18T09:57:52;4.60;;;3.87;;
4268;SDS011;2148;48.554;7.834;2023-11-18T10:00:22;4.10;;;3.80;;
4268;SDS011;2148;48.554;7.834;2023-11-18T10:02:51;5.80;;;3.97;;
4268;SDS011;2148;48.554;7.834;2023-11-18T10:05:17;4.20;;;3.80;;
4268;SDS011;2148;48.554;7.834;2023-11-18T10:07:47;3.93;;;3.63;;
4268;SDS011;2148;48.554;7.834;2023-11-18T10:10:13;4.03;;;3.57;;
4268;SDS011;2148;48.554;7.834;2023-11-18T10:12:42;3.97;;;3.63;;
4268;SDS011;2148;48.554;7.834;2023-11-18T10:15:10;3.90;;;3.40;;
4268;SDS011;2148;48.554;7.834;2023-11-18T10:17:41;3.77;;;3.47;;
4268;SDS011;2148;48.554;7.834;2023-11-18T10:20:20;4.30;;;3.90;;
4268;SDS011;2148;48.554;7.834;2023-11-18T10:23:05;4.33;;;3.93;;
4268;SDS011;2148;48.554;7.834;2023-11-18T10:25:30;4.23;;;3.83;;
4268;SDS011;2148;48.554;7.834;2023-11-18T10:27:56;7.37;;;4.47;;
4268;SDS011;2148;48.554;7.834;2023-11-18T10:30:22;4.63;;;3.90;;
4268;SDS011;2148;48.554;7.834;2023-11-18T10:32:58;3.90;;;3.50;;
4268;SDS011;2148;48.554;7.834;2023-11-18T10:35:39;3.87;;;3.57;;
4268;SDS011;2148;48.554;7.834;2023-11-18T10:38:15;4.00;;;3.10;;
4268;SDS011;2148;48.554;7.834;2023-11-18T10:40:41;4.00;;;3.60;;
4268;SDS011;2148;48.554;7.834;2023-11-18T10:43:08;4.27;;;3.47;;
4268;SDS011;2148;48.554;7.834;2023-11-18T10:45:34;3.57;;;3.27;;
4268;SDS011;2148;48.554;7.834;2023-11-18T10:48:05;5.40;;;3.30;;
4268;SDS011;2148;48.554;7.834;2023-11-18T10:50:31;4.27;;;3.23;;
4268;SDS011;2148;48.554;7.834;2023-11-18T10:52:57;4.40;;;3.50;;
4268;SDS011;2148;48.554;7.834;2023-11-18T10:55:34;3.67;;;3.37;;
4268;SDS011;2148;48.554;7.834;2023-11-18T10:58:02;3.83;;;3.30;;
4268;SDS011;2148;48.554;7.834;2023-11-18T11:00:29;3.50;;;3.20;;
4268;SDS011;2148;48.554;7.834;2023-11-18T11:03:09;7.13;;;3.50;;
4268;SDS011;2148;48.554;7.834;2023-11-18T11:05:39;6.07;;;3.60;;
4268;SDS011;2148;48.554;7.834;2023-11-18T11:08:06;4.50;;;3.50;;
4268;SDS011;2148;48.554;7.834;2023-11-18T11:10:32;4.13;;;3.70;;
4268;SDS011;2148;48.554;7.834;2023-11-18T11:13:00;4.27;;;3.70;;
4268;SDS011;2148;48.554;7.834;2023-11-18T11:15:30;4.27;;;3.70;;
4268;SDS011;2148;48.554;7.834;2023-11-18T11:17:58;4.13;;;3.47;;
4268;SDS011;2148;48.554;7.834;2023-11-18T11:20:41;5.03;;;3.17;;
4268;SDS011;2148;48.554;7.834;2023-11-18T11:26:02;6.17;;;3.93;;
4268;SDS011;2148;48.554;7.834;2023-11-18T11:28:37;7.83;;;3.60;;
4268;SDS011;2148;48.554;7.834;2023-11-18T11:33:38;4.37;;;3.40;;
4268;SDS011;2148;48.554;7.834;2023-11-18T11:36:09;4.03;;;3.13;;
4268;SDS011;2148;48.554;7.834;2023-11-18T11:38:37;5.00;;;4.07;;
4268;SDS011;2148;48.554;7.834;2023-11-18T11:41:03;4.87;;;4.37;;
4268;SDS011;2148;48.554;7.834;2023-11-18T11:43:30;4.80;;;4.30;;
4268;SDS011;2148;48.554;7.834;2023-11-18T11:45:55;4.83;;;4.37;;
4268;SDS011;2148;48.554;7.834;2023-11-18T11:48:24;6.37;;;4.73;;
4268;SDS011;2148;48.554;7.834;2023-11-18T11:56:41;4.13;;;3.83;;
4268;SDS011;2148;48.554;7.834;2023-11-18T11:59:08;3.70;;;3.40;;
4268;SDS011;2148;48.554;7.834;2023-11-18T12:01:36;3.40;;;3.10;;
4268;SDS011;2148;48.554;7.834;2023-11-18T12:04:03;3.40;;;3.10;;
4268;SDS011;2148;48.554;7.834;2023-11-18T12:06:32;4.03;;;3.73;;
4268;SDS011;2148;48.554;7.834;2023-11-18T12:09:00;4.07;;;3.77;;
4268;SDS011;2148;48.554;7.834;2023-11-18T12:11:30;4.47;;;3.70;;
4268;SDS011;2148;48.554;7.834;2023-11-18T12:19:46;3.73;;;3.43;;
4268;SDS011;2148;48.554;7.834;2023-11-18T12:22:15;4.17;;;3.77;;
4268;SDS011;2148;48.554;7.834;2023-11-18T12:35:20;6.67;;;5.10;;
4268;SDS011;2148;48.554;7.834;2023-11-18T12:43:42;7.33;;;5.63;;
4268;SDS011;2148;48.554;7.834;2023-11-18T12:46:29;8.40;;;6.00;;
4268;SDS011;2148;48.554;7.834;2023-11-18T12:49:07;8.63;;;5.83;;
4268;SDS011;2148;48.554;7.834;2023-11-18T12:51:40;6.20;;;5.17;;
4268;SDS011;2148;48.554;7.834;2023-11-18T12:54:05;7.33;;;5.07;;
4268;SDS011;2148;48.554;7.834;2023-11-18T12:56:32;5.93;;;5.10;;
4268;SDS011;2148;48.554;7.834;2023-11-18T12:58:57;6.93;;;5.87;;
4268;SDS011;2148;48.554;7.834;2023-11-18T13:01:23;6.57;;;4.80;;
4268;SDS011;2148;48.554;7.834;2023-11-18T13:03:48;6.17;;;4.73;;
4268;SDS011;2148;48.554;7.834;2023-11-18T13:06:13;5.30;;;4.80;;
4268;SDS011;2148;48.554;7.834;2023-11-18T13:08:39;5.97;;;4.80;;
4268;SDS011;2148;48.554;7.834;2023-11-18T13:11:05;4.50;;;4.00;;
4268;SDS011;2148;48.554;7.834;2023-11-18T13:13:33;6.43;;;4.73;;
4268;SDS011;2148;48.554;7.834;2023-11-18T13:15:59;5.87;;;4.63;;
4268;SDS011;2148;48.554;7.834;2023-11-18T13:18:25;7.63;;;5.63;;
4268;SDS011;2148;48.554;7.834;2023-11-18T13:20:55;5.97;;;5.27;;
4268;SDS011;2148;48.554;7.834;2023-11-18T13:23:24;5.37;;;4.60;;
4268;SDS011;2148;48.554;7.834;2023-11-18T13:25:49;7.03;;;6.10;;
4268;SDS011;2148;48.554;7.834;2023-11-18T13:28:15;6.27;;;5.23;;
4268;SDS011;2148;48.554;7.834;2023-11-18T13:30:41;9.17;;;4.37;;
4268;SDS011;2148;48.554;7.834;2023-11-18T13:33:06;6.53;;;5.30;;
4268;SDS011;2148;48.554;7.834;2023-11-18T13:35:32;5.27;;;4.47;;
4268;SDS011;2148;48.554;7.834;2023-11-18T13:37:57;4.77;;;3.30;;
4268;SDS011;2148;48.554;7.834;2023-11-18T13:40:23;7.27;;;4.23;;
4268;SDS011;2148;48.554;7.834;2023-11-18T13:42:58;6.90;;;4.67;;
4268;SDS011;2148;48.554;7.834;2023-11-18T13:45:26;5.40;;;4.90;;
4268;SDS011;2148;48.554;7.834;2023-11-18T13:47:55;5.13;;;4.73;;
4268;SDS011;2148;48.554;7.834;2023-11-18T13:50:22;5.70;;;5.03;;
4268;SDS011;2148;48.554;7.834;2023-11-18T13:52:47;5.53;;;4.67;;
4268;SDS011;2148;48.554;7.834;2023-11-18T13:55:14;7.80;;;5.07;;
4268;SDS011;2148;48.554;7.834;2023-11-18T13:57:51;5.20;;;4.77;;
4268;SDS011;2148;48.554;7.834;2023-11-18T14:00:17;6.97;;;5.10;;
4268;SDS011;2148;48.554;7.834;2023-11-18T14:02:43;5.93;;;5.33;;
4268;SDS011;2148;48.554;7.834;2023-11-18T14:05:18;5.63;;;5.03;;
4268;SDS011;2148;48.554;7.834;2023-11-18T14:07:45;6.67;;;5.10;;
4268;SDS011;2148;48.554;7.834;2023-11-18T14:10:10;6.47;;;5.53;;
4268;SDS011;2148;48.554;7.834;2023-11-18T14:12:38;6.73;;;5.83;;
4268;SDS011;2148;48.554;7.834;2023-11-18T14:15:04;5.53;;;5.00;;
4268;SDS011;2148;48.554;7.834;2023-11-18T14:17:30;6.10;;;5.03;;
4268;SDS011;2148;48.554;7.834;2023-11-18T14:19:55;7.83;;;5.53;;
4268;SDS011;2148;48.554;7.834;2023-11-18T14:22:21;6.07;;;5.37;;
4268;SDS011;2148;48.554;7.834;2023-11-18T14:24:46;8.87;;;6.70;;
4268;SDS011;2148;48.554;7.834;2023-11-18T14:27:12;7.93;;;5.77;;
4268;SDS011;2148;48.554;7.834;2023-11-18T14:29:38;6.77;;;6.07;;
4268;SDS011;2148;48.554;7.834;2023-11-18T14:32:04;7.97;;;7.17;;
4268;SDS011;2148;48.554;7.834;2023-11-18T14:34:31;8.80;;;7.07;;
4268;SDS011;2148;48.554;7.834;2023-11-18T14:36:56;9.33;;;7.07;;
4268;SDS011;2148;48.554;7.834;2023-11-18T14:39:21;8.77;;;7.77;;
4268;SDS011;2148;48.554;7.834;2023-11-18T14:41:47;8.17;;;6.57;;
4268;SDS011;2148;48.554;7.834;2023-11-18T14:44:13;6.40;;;5.80;;
4268;SDS011;2148;48.554;7.834;2023-11-18T14:46:38;7.60;;;6.10;;
4268;SDS011;2148;48.554;7.834;2023-11-18T14:49:06;6.63;;;5.93;;
4268;SDS011;2148;48.554;7.834;2023-11-18T14:51:32;7.03;;;5.30;;
4268;SDS011;2148;48.554;7.834;2023-11-18T14:53:57;7.10;;;4.80;;
4268;SDS011;2148;48.554;7.834;2023-11-18T14:56:23;6.67;;;5.13;;
4268;SDS011;2148;48.554;7.834;2023-11-18T14:58:48;5.83;;;4.77;;
4268;SDS011;2148;48.554;7.834;2023-11-18T15:01:14;7.30;;;5.20;;
4268;SDS011;2148;48.554;7.834;2023-11-18T15:03:40;5.17;;;4.67;;
4268;SDS011;2148;48.554;7.834;2023-11-18T15:06:05;5.30;;;4.80;;
4268;SDS011;2148;48.554;7.834;2023-11-18T15:08:31;5.83;;;4.40;;
4268;SDS011;2148;48.554;7.834;2023-11-18T15:10:56;7.17;;;5.63;;
4268;SDS011;2148;48.554;7.834;2023-11-18T15:13:23;5.50;;;4.90;;
4268;SDS011;2148;48.554;7.834;2023-11-18T15:15:49;7.00;;;4.57;;
4268;SDS011;2148;48.554;7.834;2023-11-18T15:18:14;6.43;;;5.47;;
4268;SDS011;2148;48.554;7.834;2023-11-18T15:20:42;5.40;;;4.90;;
4268;SDS011;2148;48.554;7.834;2023-11-18T15:23:08;5.90;;;4.67;;
4268;SDS011;2148;48.554;7.834;2023-11-18T15:25:34;6.10;;;4.50;;
4268;SDS011;2148;48.554;7.834;2023-11-18T15:27:59;5.10;;;4.60;;
4268;SDS011;2148;48.554;7.834;2023-11-18T15:30:25;6.03;;;4.50;;
4268;SDS011;2148;48.554;7.834;2023-11-18T15:32:52;7.70;;;4.67;;
4268;SDS011;2148;48.554;7.834;2023-11-18T15:35:17;4.80;;;4.30;;
4268;SDS011;2148;48.554;7.834;2023-11-18T15:37:43;5.50;;;4.47;;
4268;SDS011;2148;48.554;7.834;2023-11-18T15:40:12;6.53;;;4.90;;
4268;SDS011;2148;48.554;7.834;2023-11-18T15:42:44;6.07;;;4.80;;
4268;SDS011;2148;48.554;7.834;2023-11-18T15:47:49;7.93;;;4.77;;
4268;SDS011;2148;48.554;7.834;2023-11-18T15:50:15;5.73;;;5.00;;
4268;SDS011;2148;48.554;7.834;2023-11-18T15:52:44;5.10;;;4.60;;
4268;SDS011;2148;48.554;7.834;2023-11-18T15:55:10;6.87;;;4.37;;
4268;SDS011;2148;48.554;7.834;2023-11-18T15:57:42;6.67;;;4.43;;